Decoded Metar for KOCQ ( in ) (IATA:) | Meteo·Mobile Aviation Weather
aviador You're here:

KOCQ Decoded Metar

in
Report Time2018-12-17 14:15:00
UTC Time2018-12-17 14:23:44
Flight Rules vfr VFR
Wind320° at 04 kt
W.Decomp.*RWY 29: 3.5 kt HW 2.0 kt RCW
RWY 04: 0.7 kt HW 3.9 kt LCW
W.Rank320° ranks 22
Current wind is below 320° avg. (6.2)
Visibility9999 m
Phenomena:N/A
Clouds:N/A
Expected CloudBase > 2,000 ft AGL from Temp-Dew spread
CeilingNone
Temp-3°C
Dew Point-8°C (69% RH)
AAT-7.3°C
QNH1022 hPa
Raw Report
KOCQ 171415Z AUTO 32004KT 10SM CLR M03/M08 A3017 RMK AO1
T10271076=

Extra information for KOCQ:More info

Social comments